sensor_id;sensor_type;location;lat;lon;timestamp;pressure;altitude;pressure_sealevel;temperature;humidity
62725;BME280;49026;52.600;4.694;2023-02-16T00:00:48;102279.97;;;6.90;73.35
62725;BME280;49026;52.600;4.694;2023-02-16T00:03:21;102279.97;;;6.90;74.13
62725;BME280;49026;52.600;4.694;2023-02-16T00:05:47;102273.00;;;6.91;74.18
62725;BME280;49026;52.600;4.694;2023-02-16T00:08:13;102276.47;;;6.94;74.20
62725;BME280;49026;52.600;4.694;2023-02-16T00:10:38;102272.97;;;7.00;73.94
62725;BME280;49026;52.600;4.694;2023-02-16T00:13:26;102271.25;;;7.00;73.73
62725;BME280;49026;52.600;4.694;2023-02-16T00:16:13;102265.13;;;7.01;73.85
62725;BME280;49026;52.600;4.694;2023-02-16T00:18:39;102263.41;;;7.03;73.75
62725;BME280;49026;52.600;4.694;2023-02-16T00:21:04;102264.25;;;7.05;74.04
62725;BME280;49026;52.600;4.694;2023-02-16T00:23:30;102267.72;;;7.08;74.01
62725;BME280;49026;52.600;4.694;2023-02-16T00:25:57;102263.34;;;7.11;74.25
62725;BME280;49026;52.600;4.694;2023-02-16T00:28:22;102252.03;;;7.14;73.84
62725;BME280;49026;52.600;4.694;2023-02-16T00:30:48;102258.13;;;7.13;74.30
62725;BME280;49026;52.600;4.694;2023-02-16T00:33:18;102244.19;;;7.11;74.26
62725;BME280;49026;52.600;4.694;2023-02-16T00:35:44;102255.53;;;7.10;73.98
62725;BME280;49026;52.600;4.694;2023-02-16T00:38:10;102252.91;;;7.08;74.59
62725;BME280;49026;52.600;4.694;2023-02-16T00:40:35;102243.34;;;7.05;74.21
62725;BME280;49026;52.600;4.694;2023-02-16T00:43:02;102251.19;;;7.02;74.27
62725;BME280;49026;52.600;4.694;2023-02-16T00:45:30;102248.59;;;6.99;74.11
62725;BME280;49026;52.600;4.694;2023-02-16T00:47:57;102241.63;;;6.98;74.48
62725;BME280;49026;52.600;4.694;2023-02-16T00:50:30;102252.09;;;6.98;74.58
62725;BME280;49026;52.600;4.694;2023-02-16T00:52:56;102239.03;;;6.97;74.53
62725;BME280;49026;52.600;4.694;2023-02-16T00:55:32;102250.34;;;6.97;74.09
62725;BME280;49026;52.600;4.694;2023-02-16T00:58:25;102244.25;;;6.98;73.90
62725;BME280;49026;52.600;4.694;2023-02-16T01:00:54;102240.75;;;6.96;74.26
62725;BME280;49026;52.600;4.694;2023-02-16T01:03:26;102243.34;;;7.01;73.87
62725;BME280;49026;52.600;4.694;2023-02-16T01:05:54;102249.44;;;7.03;73.58
62725;BME280;49026;52.600;4.694;2023-02-16T01:08:38;102245.97;;;7.05;74.33
62725;BME280;49026;52.600;4.694;2023-02-16T01:11:25;102247.69;;;7.07;74.01
62725;BME280;49026;52.600;4.694;2023-02-16T01:13:52;102226.78;;;7.08;73.53
62725;BME280;49026;52.600;4.694;2023-02-16T01:16:32;102249.44;;;7.11;73.59
62725;BME280;49026;52.600;4.694;2023-02-16T01:18:59;102236.34;;;7.14;74.16
62725;BME280;49026;52.600;4.694;2023-02-16T01:21:24;102241.56;;;7.17;74.35
62725;BME280;49026;52.600;4.694;2023-02-16T01:23:52;102244.16;;;7.21;74.55
62725;BME280;49026;52.600;4.694;2023-02-16T01:26:19;102245.91;;;7.27;74.91
62725;BME280;49026;52.600;4.694;2023-02-16T01:28:45;102243.22;;;7.33;74.88
62725;BME280;49026;52.600;4.694;2023-02-16T01:31:12;102237.13;;;7.39;74.71
62725;BME280;49026;52.600;4.694;2023-02-16T01:33:38;102233.59;;;7.45;75.15
62725;BME280;49026;52.600;4.694;2023-02-16T01:36:04;102230.97;;;7.48;74.77
62725;BME280;49026;52.600;4.694;2023-02-16T01:38:31;102222.25;;;7.52;75.01
62725;BME280;49026;52.600;4.694;2023-02-16T01:41:10;102222.22;;;7.55;75.57
62725;BME280;49026;52.600;4.694;2023-02-16T01:43:56;102219.56;;;7.58;75.03
62725;BME280;49026;52.600;4.694;2023-02-16T01:46:33;102218.69;;;7.62;75.00
62725;BME280;49026;52.600;4.694;2023-02-16T01:49:00;102215.16;;;7.66;75.43
62725;BME280;49026;52.600;4.694;2023-02-16T01:51:34;102216.03;;;7.67;75.14
62725;BME280;49026;52.600;4.694;2023-02-16T02:02:15;102209.94;;;7.65;74.82
62725;BME280;49026;52.600;4.694;2023-02-16T02:04:49;102208.19;;;7.67;75.06
62725;BME280;49026;52.600;4.694;2023-02-16T02:08:02;102195.09;;;7.67;75.48
62725;BME280;49026;52.600;4.694;2023-02-16T02:10:50;102199.44;;;7.71;75.23
62725;BME280;49026;52.600;4.694;2023-02-16T02:13:28;102200.31;;;7.74;75.46
62725;BME280;49026;52.600;4.694;2023-02-16T02:15:57;102200.31;;;7.74;75.55
62725;BME280;49026;52.600;4.694;2023-02-16T02:18:25;102192.44;;;7.74;75.24
62725;BME280;49026;52.600;4.694;2023-02-16T02:24:14;102197.69;;;7.74;75.53
62725;BME280;49026;52.600;4.694;2023-02-16T02:29:48;102197.81;;;7.56;74.65
62725;BME280;49026;52.600;4.694;2023-02-16T02:35:18;102193.44;;;7.53;75.01
62725;BME280;49026;52.600;4.694;2023-02-16T02:37:54;102181.25;;;7.54;74.64
62725;BME280;49026;52.600;4.694;2023-02-16T02:43:35;102178.63;;;7.54;75.45
62725;BME280;49026;52.600;4.694;2023-02-16T02:46:18;102181.25;;;7.54;75.83
62725;BME280;49026;52.600;4.694;2023-02-16T02:48:47;102182.09;;;7.54;75.45
62725;BME280;49026;52.600;4.694;2023-02-16T02:51:14;102169.06;;;7.50;74.99
62725;BME280;49026;52.600;4.694;2023-02-16T02:57:17;102187.44;;;7.40;75.15
62725;BME280;49026;52.600;4.694;2023-02-16T03:00:18;102178.69;;;7.41;75.23
62725;BME280;49026;52.600;4.694;2023-02-16T03:03:26;102178.69;;;7.41;75.23
62725;BME280;49026;52.600;4.694;2023-02-16T03:05:58;102174.34;;;7.40;75.43
62725;BME280;49026;52.600;4.694;2023-02-16T03:08:31;102169.97;;;7.42;75.46
62725;BME280;49026;52.600;4.694;2023-02-16T03:11:07;102171.72;;;7.44;75.63
62725;BME280;49026;52.600;4.694;2023-02-16T03:13:57;102174.34;;;7.45;76.45
62725;BME280;49026;52.600;4.694;2023-02-16T03:16:34;102167.34;;;7.46;75.87
62725;BME280;49026;52.600;4.694;2023-02-16T03:19:06;102169.94;;;7.49;75.64
62725;BME280;49026;52.600;4.694;2023-02-16T03:21:52;102168.19;;;7.51;75.94
62725;BME280;49026;52.600;4.694;2023-02-16T03:24:38;102169.03;;;7.56;75.90
62725;BME280;49026;52.600;4.694;2023-02-16T03:27:24;102163.78;;;7.57;76.17
62725;BME280;49026;52.600;4.694;2023-02-16T03:30:11;102164.66;;;7.58;76.12
62725;BME280;49026;52.600;4.694;2023-02-16T03:32:41;102166.41;;;7.59;75.97
62725;BME280;49026;52.600;4.694;2023-02-16T03:35:07;102160.25;;;7.63;75.73
62725;BME280;49026;52.600;4.694;2023-02-16T03:37:35;102160.22;;;7.66;75.75
62725;BME280;49026;52.600;4.694;2023-02-16T03:40:04;102150.59;;;7.70;75.65
62725;BME280;49026;52.600;4.694;2023-02-16T03:42:50;102156.72;;;7.72;75.78
62725;BME280;49026;52.600;4.694;2023-02-16T03:45:16;102164.56;;;7.72;75.85
62725;BME280;49026;52.600;4.694;2023-02-16T03:47:41;102154.97;;;7.72;75.62
62725;BME280;49026;52.600;4.694;2023-02-16T03:50:07;102155.81;;;7.74;76.05
62725;BME280;49026;52.600;4.694;2023-02-16T03:52:32;102160.19;;;7.75;76.08
62725;BME280;49026;52.600;4.694;2023-02-16T03:54:57;102164.53;;;7.76;76.25
62725;BME280;49026;52.600;4.694;2023-02-16T03:57:24;102155.81;;;7.74;76.03
62725;BME280;49026;52.600;4.694;2023-02-16T03:59:50;102152.34;;;7.72;75.65
62725;BME280;49026;52.600;4.694;2023-02-16T04:02:16;102163.69;;;7.68;75.84
62725;BME280;49026;52.600;4.694;2023-02-16T04:04:41;102156.75;;;7.69;76.61
62725;BME280;49026;52.600;4.694;2023-02-16T04:07:06;102150.63;;;7.68;76.36
62725;BME280;49026;52.600;4.694;2023-02-16T04:09:34;102148.91;;;7.67;76.41
62725;BME280;49026;52.600;4.694;2023-02-16T04:11:59;102148.91;;;7.67;75.30
62725;BME280;49026;52.600;4.694;2023-02-16T04:14:45;102151.53;;;7.63;75.65
62725;BME280;49026;52.600;4.694;2023-02-16T04:17:10;102158.53;;;7.59;76.40
62725;BME280;49026;52.600;4.694;2023-02-16T04:19:36;102156.78;;;7.58;76.48
62725;BME280;49026;52.600;4.694;2023-02-16T04:22:01;102162.94;;;7.57;76.06
62725;BME280;49026;52.600;4.694;2023-02-16T04:24:29;102174.25;;;7.54;75.14
62725;BME280;49026;52.600;4.694;2023-02-16T04:26:54;102169.03;;;7.53;76.11
62725;BME280;49026;52.600;4.694;2023-02-16T04:29:19;102175.13;;;7.53;75.69
62725;BME280;49026;52.600;4.694;2023-02-16T04:31:45;102168.19;;;7.54;75.58
62725;BME280;49026;52.600;4.694;2023-02-16T04:34:10;102168.19;;;7.54;75.90
62725;BME280;49026;52.600;4.694;2023-02-16T04:36:38;102168.16;;;7.55;76.45
62725;BME280;49026;52.600;4.694;2023-02-16T04:39:04;102166.41;;;7.56;76.48
62725;BME280;49026;52.600;4.694;2023-02-16T04:41:29;102162.94;;;7.54;76.45
62725;BME280;49026;52.600;4.694;2023-02-16T04:43:54;102155.09;;;7.52;76.74
62725;BME280;49026;52.600;4.694;2023-02-16T04:46:20;102140.28;;;7.50;76.79
62725;BME280;49026;52.600;4.694;2023-02-16T04:48:45;102142.91;;;7.47;76.18
62725;BME280;49026;52.600;4.694;2023-02-16T04:51:11;102148.19;;;7.45;76.59
62725;BME280;49026;52.600;4.694;2023-02-16T04:53:36;102149.06;;;7.42;76.51
62725;BME280;49026;52.600;4.694;2023-02-16T04:56:01;102145.59;;;7.40;76.79
62725;BME280;49026;52.600;4.694;2023-02-16T04:58:29;102141.22;;;7.36;76.50
62725;BME280;49026;52.600;4.694;2023-02-16T05:00:54;102147.38;;;7.35;76.55
62725;BME280;49026;52.600;4.694;2023-02-16T05:03:19;102141.25;;;7.33;76.49
62725;BME280;49026;52.600;4.694;2023-02-16T05:05:45;102140.38;;;7.33;76.85
62725;BME280;49026;52.600;4.694;2023-02-16T05:08:10;102155.22;;;7.32;76.23
62725;BME280;49026;52.600;4.694;2023-02-16T05:10:36;102142.16;;;7.32;76.74
62725;BME280;49026;52.600;4.694;2023-02-16T05:13:01;102150.84;;;7.31;76.61
62725;BME280;49026;52.600;4.694;2023-02-16T05:15:45;102149.13;;;7.30;76.19
62725;BME280;49026;52.600;4.694;2023-02-16T05:18:10;102141.31;;;7.29;76.30
62725;BME280;49026;52.600;4.694;2023-02-16T05:20:40;102143.91;;;7.30;76.44
62725;BME280;49026;52.600;4.694;2023-02-16T05:23:24;102156.97;;;7.30;76.40
62725;BME280;49026;52.600;4.694;2023-02-16T05:25:50;102149.13;;;7.30;76.67
62725;BME280;49026;52.600;4.694;2023-02-16T05:28:15;102148.25;;;7.31;76.90
62725;BME280;49026;52.600;4.694;2023-02-16T05:30:40;102145.63;;;7.31;76.71
62725;BME280;49026;52.600;4.694;2023-02-16T05:33:06;102146.47;;;7.33;76.70
62725;BME280;49026;52.600;4.694;2023-02-16T05:35:32;102143.00;;;7.33;76.59
62725;BME280;49026;52.600;4.694;2023-02-16T05:37:58;102137.78;;;7.34;76.51
62725;BME280;49026;52.600;4.694;2023-02-16T05:40:27;102146.47;;;7.35;76.40
62725;BME280;49026;52.600;4.694;2023-02-16T05:42:53;102147.34;;;7.37;76.77
62725;BME280;49026;52.600;4.694;2023-02-16T05:45:18;102139.50;;;7.38;76.81
62725;BME280;49026;52.600;4.694;2023-02-16T05:47:44;102142.13;;;7.37;76.53
62725;BME280;49026;52.600;4.694;2023-02-16T05:50:09;102139.53;;;7.35;76.95
62725;BME280;49026;52.600;4.694;2023-02-16T05:52:37;102141.25;;;7.35;77.02
62725;BME280;49026;52.600;4.694;2023-02-16T05:55:05;102142.16;;;7.32;76.99
62725;BME280;49026;52.600;4.694;2023-02-16T05:57:30;102150.84;;;7.31;76.41
62725;BME280;49026;52.600;4.694;2023-02-16T05:59:59;102158.72;;;7.30;76.52
62725;BME280;49026;52.600;4.694;2023-02-16T06:02:24;102157.84;;;7.31;76.70
62725;BME280;49026;52.600;4.694;2023-02-16T06:04:49;102154.38;;;7.30;77.50
62725;BME280;49026;52.600;4.694;2023-02-16T06:07:17;102156.09;;;7.31;77.47
62725;BME280;49026;52.600;4.694;2023-02-16T06:09:42;102156.94;;;7.33;77.04
62725;BME280;49026;52.600;4.694;2023-02-16T06:12:07;102161.31;;;7.33;77.22
62725;BME280;49026;52.600;4.694;2023-02-16T06:14:32;102163.06;;;7.32;77.32
62725;BME280;49026;52.600;4.694;2023-02-16T06:16:58;102157.81;;;7.34;76.83
62725;BME280;49026;52.600;4.694;2023-02-16T06:19:25;102153.47;;;7.34;76.88
62725;BME280;49026;52.600;4.694;2023-02-16T06:21:53;102147.38;;;7.35;76.95
62725;BME280;49026;52.600;4.694;2023-02-16T06:24:20;102156.94;;;7.36;77.39
62725;BME280;49026;52.600;4.694;2023-02-16T06:26:46;102152.59;;;7.37;77.26
62725;BME280;49026;52.600;4.694;2023-02-16T06:29:11;102153.44;;;7.36;76.55
62725;BME280;49026;52.600;4.694;2023-02-16T06:31:36;102154.31;;;7.33;77.66
62725;BME280;49026;52.600;4.694;2023-02-16T06:34:02;102148.25;;;7.31;77.39
62725;BME280;49026;52.600;4.694;2023-02-16T06:36:30;102154.38;;;7.30;76.97
62725;BME280;49026;52.600;4.694;2023-02-16T06:38:56;102163.06;;;7.29;77.28
62725;BME280;49026;52.600;4.694;2023-02-16T06:41:21;102170.91;;;7.29;76.67
62725;BME280;49026;52.600;4.694;2023-02-16T06:44:00;102163.09;;;7.28;77.37
62725;BME280;49026;52.600;4.694;2023-02-16T06:46:26;102163.09;;;7.26;77.20
62725;BME280;49026;52.600;4.694;2023-02-16T06:48:52;102164.00;;;7.23;77.00
62725;BME280;49026;52.600;4.694;2023-02-16T06:51:17;102152.66;;;7.21;77.29
62725;BME280;49026;52.600;4.694;2023-02-16T06:53:43;102159.63;;;7.19;77.54
62725;BME280;49026;52.600;4.694;2023-02-16T06:56:08;102163.09;;;7.20;77.18
62725;BME280;49026;52.600;4.694;2023-02-16T06:58:33;102159.63;;;7.21;77.13
62725;BME280;49026;52.600;4.694;2023-02-16T07:00:58;102168.31;;;7.23;77.12
62725;BME280;49026;52.600;4.694;2023-02-16T07:03:24;102166.59;;;7.25;77.47
62725;BME280;49026;52.600;4.694;2023-02-16T07:05:49;102169.16;;;7.28;76.88
62725;BME280;49026;52.600;4.694;2023-02-16T07:08:14;102166.53;;;7.31;78.05
62725;BME280;49026;52.600;4.694;2023-02-16T07:10:44;102167.38;;;7.35;77.59
62725;BME280;49026;52.600;4.694;2023-02-16T07:13:10;102170.00;;;7.39;77.53
62725;BME280;49026;52.600;4.694;2023-02-16T07:15:36;102176.97;;;7.44;78.31
62725;BME280;49026;52.600;4.694;2023-02-16T07:18:05;102181.28;;;7.46;77.93
62725;BME280;49026;52.600;4.694;2023-02-16T07:20:30;102175.19;;;7.49;77.54
62725;BME280;49026;52.600;4.694;2023-02-16T07:23:07;102176.91;;;7.51;78.06
62725;BME280;49026;52.600;4.694;2023-02-16T07:25:32;102183.88;;;7.51;77.34
62725;BME280;49026;52.600;4.694;2023-02-16T07:27:58;102195.22;;;7.50;78.36
62725;BME280;49026;52.600;4.694;2023-02-16T07:30:23;102187.38;;;7.50;78.34
62725;BME280;49026;52.600;4.694;2023-02-16T07:32:48;102186.50;;;7.51;78.58
62725;BME280;49026;52.600;4.694;2023-02-16T07:35:18;102193.44;;;7.53;78.00
62725;BME280;49026;52.600;4.694;2023-02-16T07:37:43;102196.03;;;7.55;77.41
62725;BME280;49026;52.600;4.694;2023-02-16T07:40:09;102199.56;;;7.54;77.69
62725;BME280;49026;52.600;4.694;2023-02-16T07:42:34;102195.19;;;7.53;78.74
62725;BME280;49026;52.600;4.694;2023-02-16T07:44:59;102199.56;;;7.51;78.60
62725;BME280;49026;52.600;4.694;2023-02-16T07:47:27;102210.91;;;7.51;78.13
62725;BME280;49026;52.600;4.694;2023-02-16T07:49:53;102211.78;;;7.50;78.14
62725;BME280;49026;52.600;4.694;2023-02-16T07:52:18;102209.19;;;7.52;78.13
62725;BME280;49026;52.600;4.694;2023-02-16T07:54:43;102201.31;;;7.52;78.31
62725;BME280;49026;52.600;4.694;2023-02-16T07:57:10;102210.03;;;7.52;78.57
62725;BME280;49026;52.600;4.694;2023-02-16T07:59:38;102210.03;;;7.54;78.22
62725;BME280;49026;52.600;4.694;2023-02-16T08:02:03;102215.25;;;7.54;78.44
62725;BME280;49026;52.600;4.694;2023-02-16T08:04:28;102216.97;;;7.55;78.29
62725;BME280;49026;52.600;4.694;2023-02-16T08:06:54;102217.88;;;7.55;78.37
62725;BME280;49026;52.600;4.694;2023-02-16T08:09:21;102218.72;;;7.59;78.45
62725;BME280;49026;52.600;4.694;2023-02-16T08:11:47;102218.69;;;7.62;78.26
62725;BME280;49026;52.600;4.694;2023-02-16T08:14:13;102235.25;;;7.66;78.35
62725;BME280;49026;52.600;4.694;2023-02-16T08:16:39;102223.03;;;7.68;78.32
62725;BME280;49026;52.600;4.694;2023-02-16T08:19:04;102222.16;;;7.70;78.60
62725;BME280;49026;52.600;4.694;2023-02-16T08:21:36;102211.66;;;7.72;78.25
62725;BME280;49026;52.600;4.694;2023-02-16T08:24:05;102216.00;;;7.74;78.46
62725;BME280;49026;52.600;4.694;2023-02-16T08:26:37;102195.06;;;7.76;78.79
62725;BME280;49026;52.600;4.694;2023-02-16T08:29:04;102202.91;;;7.77;78.36
62725;BME280;49026;52.600;4.694;2023-02-16T08:31:33;102213.38;;;7.77;78.36
62725;BME280;49026;52.600;4.694;2023-02-16T08:33:59;102203.78;;;7.76;78.54
62725;BME280;49026;52.600;4.694;2023-02-16T08:36:28;102196.81;;;7.77;78.99
62725;BME280;49026;52.600;4.694;2023-02-16T08:39:00;102208.09;;;7.84;78.98
62725;BME280;49026;52.600;4.694;2023-02-16T08:41:30;102194.94;;;7.93;78.66
62725;BME280;49026;52.600;4.694;2023-02-16T08:43:56;102211.47;;;8.00;78.63
62725;BME280;49026;52.600;4.694;2023-02-16T08:46:21;102217.53;;;8.03;78.60
62725;BME280;49026;52.600;4.694;2023-02-16T08:48:47;102216.66;;;8.07;78.38
62725;BME280;49026;52.600;4.694;2023-02-16T08:51:14;102207.00;;;8.12;78.81
62725;BME280;49026;52.600;4.694;2023-02-16T08:53:40;102212.22;;;8.17;79.00
62725;BME280;49026;52.600;4.694;2023-02-16T08:56:05;102206.06;;;8.23;79.02
62725;BME280;49026;52.600;4.694;2023-02-16T08:58:31;102209.50;;;8.25;78.78
62725;BME280;49026;52.600;4.694;2023-02-16T09:01:02;102204.28;;;8.23;78.84
62725;BME280;49026;52.600;4.694;2023-02-16T09:03:29;102198.19;;;8.24;78.46
62725;BME280;49026;52.600;4.694;2023-02-16T09:06:02;102209.50;;;8.25;79.11
62725;BME280;49026;52.600;4.694;2023-02-16T09:08:28;102194.69;;;8.25;79.12
62725;BME280;49026;52.600;4.694;2023-02-16T09:10:54;102186.78;;;8.27;78.72
62725;BME280;49026;52.600;4.694;2023-02-16T09:13:19;102189.41;;;8.28;79.49
62725;BME280;49026;52.600;4.694;2023-02-16T09:15:46;102179.81;;;8.30;79.21
62725;BME280;49026;52.600;4.694;2023-02-16T09:18:12;102179.75;;;8.35;79.07
62725;BME280;49026;52.600;4.694;2023-02-16T09:20:40;102183.22;;;8.37;79.22
62725;BME280;49026;52.600;4.694;2023-02-16T09:23:06;102191.91;;;8.42;79.30
62725;BME280;49026;52.600;4.694;2023-02-16T09:25:39;102198.00;;;8.49;79.14
62725;BME280;49026;52.600;4.694;2023-02-16T09:28:05;102205.78;;;8.53;79.17
62725;BME280;49026;52.600;4.694;2023-02-16T09:30:33;102208.34;;;8.60;79.22
62725;BME280;49026;52.600;4.694;2023-02-16T09:32:59;102213.56;;;8.63;78.97
62725;BME280;49026;52.600;4.694;2023-02-16T09:35:25;102209.19;;;8.65;78.89
62725;BME280;49026;52.600;4.694;2023-02-16T09:37:52;102213.56;;;8.63;79.04
62725;BME280;49026;52.600;4.694;2023-02-16T09:40:18;102206.59;;;8.62;78.84
62725;BME280;49026;52.600;4.694;2023-02-16T09:43:07;102204.84;;;8.62;79.33
62725;BME280;49026;52.600;4.694;2023-02-16T09:45:42;102196.06;;;8.66;79.31
62725;BME280;49026;52.600;4.694;2023-02-16T09:48:30;102214.41;;;8.66;79.30
62725;BME280;49026;52.600;4.694;2023-02-16T09:50:59;102222.25;;;8.66;78.99
62725;BME280;49026;52.600;4.694;2023-02-16T09:53:34;102219.63;;;8.68;79.14
62725;BME280;49026;52.600;4.694;2023-02-16T09:56:31;102223.94;;;8.74;78.79
62725;BME280;49026;52.600;4.694;2023-02-16T09:59:04;102224.81;;;8.74;79.01
62725;BME280;49026;52.600;4.694;2023-02-16T10:01:47;102224.84;;;8.71;78.68
62725;BME280;49026;52.600;4.694;2023-02-16T10:04:43;102224.91;;;8.65;78.90
62725;BME280;49026;52.600;4.694;2023-02-16T10:09:44;102238.09;;;8.57;78.79
62725;BME280;49026;52.600;4.694;2023-02-16T10:12:20;102227.59;;;8.59;79.19
62725;BME280;49026;52.600;4.694;2023-02-16T10:14:50;102231.91;;;8.63;79.17
62725;BME280;49026;52.600;4.694;2023-02-16T10:22:39;102228.00;;;9.04;79.04
62725;BME280;49026;52.600;4.694;2023-02-16T10:28:16;102213.63;;;9.36;78.87
62725;BME280;49026;52.600;4.694;2023-02-16T10:30:49;102206.50;;;9.44;78.90
62725;BME280;49026;52.600;4.694;2023-02-16T10:36:33;102207.13;;;9.63;79.11
62725;BME280;49026;52.600;4.694;2023-02-16T10:39:11;102207.00;;;9.72;79.68
62725;BME280;49026;52.600;4.694;2023-02-16T10:41:43;102199.81;;;9.82;79.25
62725;BME280;49026;52.600;4.694;2023-02-16T10:44:34;102198.88;;;9.89;79.36
62725;BME280;49026;52.600;4.694;2023-02-16T10:47:05;102203.13;;;9.96;79.60
62725;BME280;49026;52.600;4.694;2023-02-16T10:49:34;102200.34;;;10.06;79.74
62725;BME280;49026;52.600;4.694;2023-02-16T10:52:01;102209.03;;;10.11;79.29
62725;BME280;49026;52.600;4.694;2023-02-16T10:54:30;102212.44;;;10.16;79.83
62725;BME280;49026;52.600;4.694;2023-02-16T10:57:04;102208.84;;;10.20;80.11
62725;BME280;49026;52.600;4.694;2023-02-16T10:59:42;102199.06;;;10.30;80.16
62725;BME280;49026;52.600;4.694;2023-02-16T11:02:37;102198.91;;;10.41;79.90
62725;BME280;49026;52.600;4.694;2023-02-16T11:07:56;102188.19;;;10.53;79.84
62725;BME280;49026;52.600;4.694;2023-02-16T11:10:34;102180.91;;;10.66;79.67
62725;BME280;49026;52.600;4.694;2023-02-16T11:13:01;102180.69;;;10.78;79.83
62725;BME280;49026;52.600;4.694;2023-02-16T11:15:28;102167.47;;;10.83;79.63
62725;BME280;49026;52.600;4.694;2023-02-16T11:18:04;102174.38;;;10.87;79.38
62725;BME280;49026;52.600;4.694;2023-02-16T11:25:52;102163.59;;;11.41;79.13
62725;BME280;49026;52.600;4.694;2023-02-16T11:28:25;102162.00;;;11.72;78.80
62725;BME280;49026;52.600;4.694;2023-02-16T11:31:09;102165.16;;;11.86;78.24
62725;BME280;49026;52.600;4.694;2023-02-16T11:33:37;102156.22;;;11.95;78.19
62725;BME280;49026;52.600;4.694;2023-02-16T11:36:40;102161.31;;;12.01;78.30
62725;BME280;49026;52.600;4.694;2023-02-16T11:41:55;102153.22;;;12.43;78.91
62725;BME280;49026;52.600;4.694;2023-02-16T11:44:41;102152.06;;;12.53;78.23
62725;BME280;49026;52.600;4.694;2023-02-16T11:47:43;102148.06;;;12.71;78.89
62725;BME280;49026;52.600;4.694;2023-02-16T11:50:36;102141.56;;;12.83;78.43
62725;BME280;49026;52.600;4.694;2023-02-16T11:55:35;102140.72;;;13.11;78.67
62725;BME280;49026;52.600;4.694;2023-02-16T11:58:26;102128.09;;;13.22;75.80
62725;BME280;49026;52.600;4.694;2023-02-16T12:01:14;102114.06;;;13.20;76.30
62725;BME280;49026;52.600;4.694;2023-02-16T12:14:37;102100.94;;;14.25;75.51
62725;BME280;49026;52.600;4.694;2023-02-16T12:19:47;102109.28;;;13.61;75.45
62725;BME280;49026;52.600;4.694;2023-02-16T12:22:25;102103.97;;;13.34;74.78
62725;BME280;49026;52.600;4.694;2023-02-16T12:28:03;102090.59;;;13.67;73.52
62725;BME280;49026;52.600;4.694;2023-02-16T12:39:01;102098.94;;;12.67;73.41
62725;BME280;49026;52.600;4.694;2023-02-16T12:41:46;102086.88;;;12.27;75.54
62725;BME280;49026;52.600;4.694;2023-02-16T12:44:23;102082.22;;;12.04;74.82
62725;BME280;49026;52.600;4.694;2023-02-16T12:47:00;102076.31;;;11.94;75.13
62725;BME280;49026;52.600;4.694;2023-02-16T12:52:21;102069.53;;;11.84;75.53
62725;BME280;49026;52.600;4.694;2023-02-16T12:54:51;102060.97;;;11.76;76.24
62725;BME280;49026;52.600;4.694;2023-02-16T12:57:22;102047.94;;;11.71;75.02
62725;BME280;49026;52.600;4.694;2023-02-16T13:00:11;102041.84;;;11.67;74.45
62725;BME280;49026;52.600;4.694;2023-02-16T13:02:50;102044.53;;;11.66;74.11
62725;BME280;49026;52.600;4.694;2023-02-16T13:05:22;102046.13;;;11.73;74.15
62725;BME280;49026;52.600;4.694;2023-02-16T13:07:55;102016.06;;;11.80;75.14
62725;BME280;49026;52.600;4.694;2023-02-16T13:13:17;102032.03;;;11.74;75.87
62725;BME280;49026;52.600;4.694;2023-02-16T13:15:50;102033.06;;;11.68;75.29
62725;BME280;49026;52.600;4.694;2023-02-16T13:18:23;102020.00;;;11.64;75.67
62725;BME280;49026;52.600;4.694;2023-02-16T13:20:57;102026.34;;;11.57;75.46
62725;BME280;49026;52.600;4.694;2023-02-16T13:23:52;102023.03;;;11.48;75.42
62725;BME280;49026;52.600;4.694;2023-02-16T13:32:12;102016.66;;;11.23;74.15
62725;BME280;49026;52.600;4.694;2023-02-16T13:43:02;102006.91;;;10.89;76.08
62725;BME280;49026;52.600;4.694;2023-02-16T13:45:45;102006.16;;;10.84;76.86
62725;BME280;49026;52.600;4.694;2023-02-16T13:48:13;101978.28;;;10.77;77.01
62725;BME280;49026;52.600;4.694;2023-02-16T13:50:43;101999.59;;;10.64;76.92
62725;BME280;49026;52.600;4.694;2023-02-16T13:53:19;101999.78;;;10.55;77.11
62725;BME280;49026;52.600;4.694;2023-02-16T13:55:45;101961.47;;;10.45;77.13
62725;BME280;49026;52.600;4.694;2023-02-16T14:00:42;101980.63;;;10.05;76.83
62725;BME280;49026;52.600;4.694;2023-02-16T14:03:35;101976.16;;;9.63;76.80
62725;BME280;49026;52.600;4.694;2023-02-16T14:06:28;101992.59;;;9.23;78.15
62725;BME280;49026;52.600;4.694;2023-02-16T14:22:46;101976.97;;;8.56;79.18
62725;BME280;49026;52.600;4.694;2023-02-16T14:30:50;101979.81;;;8.36;79.27
62725;BME280;49026;52.600;4.694;2023-02-16T14:36:34;101987.06;;;8.15;79.32
62725;BME280;49026;52.600;4.694;2023-02-16T14:38:59;101971.44;;;8.08;79.33
62725;BME280;49026;52.600;4.694;2023-02-16T14:41:33;101968.84;;;8.03;79.44
62725;BME280;49026;52.600;4.694;2023-02-16T14:46:51;101978.53;;;7.96;79.56
62725;BME280;49026;52.600;4.694;2023-02-16T14:58:02;101978.63;;;7.87;80.54
62725;BME280;49026;52.600;4.694;2023-02-16T15:03:18;101972.53;;;7.87;81.03
62725;BME280;49026;52.600;4.694;2023-02-16T15:05:59;101965.56;;;7.86;81.16
62725;BME280;49026;52.600;4.694;2023-02-16T15:08:32;101974.25;;;7.88;80.80
62725;BME280;49026;52.600;4.694;2023-02-16T15:11:11;101969.88;;;7.90;81.02
62725;BME280;49026;52.600;4.694;2023-02-16T15:13:37;101961.16;;;7.89;81.45
62725;BME280;49026;52.600;4.694;2023-02-16T15:16:03;101966.44;;;7.86;81.16
62725;BME280;49026;52.600;4.694;2023-02-16T15:18:36;101969.03;;;7.86;81.20
62725;BME280;49026;52.600;4.694;2023-02-16T15:21:03;101963.81;;;7.85;81.97
62725;BME280;49026;52.600;4.694;2023-02-16T15:23:31;101967.34;;;7.84;81.00
62725;BME280;49026;52.600;4.694;2023-02-16T15:26:01;101968.22;;;7.81;81.47
62725;BME280;49026;52.600;4.694;2023-02-16T15:28:31;101969.09;;;7.82;81.06
62725;BME280;49026;52.600;4.694;2023-02-16T15:31:00;101963.91;;;7.78;81.11
62725;BME280;49026;52.600;4.694;2023-02-16T15:33:40;101957.78;;;7.78;81.16